Time;durP1;ratioP1;P1;durP2;ratioP2;P2;SDS_P1;SDS_P2;PMS_P1;PMS_P2;Temp;Humidity;BMP_temperature;BMP_pressure;BME280_temperature;BME280_humidity;BME280_pressure;Samples;Min_cycle;Max_cycle;Signal;HPM_P1;HPM_P2
2022/05/02 00:00:52;;;;;;;2.17;1.83;;;12.80;67.70;;;;;;5090004;28;20287;-46
2022/05/02 00:03:19;;;;;;;1.93;1.83;;;12.80;67.70;;;;;;5090254;28;20196;-42
2022/05/02 00:05:46;;;;;;;1.90;1.77;;;12.80;67.70;;;;;;5087713;28;20188;-44
2022/05/02 00:08:14;;;;;;;2.30;2.10;;;12.80;67.60;;;;;;5090065;28;20771;-43
2022/05/02 00:10:41;;;;;;;2.50;2.30;;;12.80;67.50;;;;;;5087901;28;20276;-42
2022/05/02 00:13:09;;;;;;;2.03;1.80;;;12.80;67.50;;;;;;5090290;28;20197;-44
2022/05/02 00:15:37;;;;;;;3.13;1.97;;;12.80;67.50;;;;;;5088614;28;20241;-42
2022/05/02 00:18:07;;;;;;;2.60;2.00;;;12.80;67.50;;;;;;5086506;28;20274;-45
2022/05/02 00:20:35;;;;;;;2.17;1.87;;;12.70;68.20;;;;;;5074246;28;20194;-45
2022/05/02 00:23:04;;;;;;;2.13;1.67;;;12.70;67.50;;;;;;5089626;28;20704;-40
2022/05/02 00:25:31;;;;;;;3.27;1.70;;;12.70;67.50;;;;;;5089403;28;20205;-46
2022/05/02 00:27:59;;;;;;;1.70;1.60;;;12.70;67.50;;;;;;5088294;28;20224;-43
2022/05/02 00:30:28;;;;;;;3.30;2.37;;;12.70;67.60;;;;;;5089293;28;20201;-47
2022/05/02 00:32:55;;;;;;;2.10;2.00;;;12.70;67.60;;;;;;5089576;28;20240;-50
2022/05/02 00:35:24;;;;;;;6.00;2.47;;;12.70;67.60;;;;;;5095919;28;20215;-45
2022/05/02 00:37:51;;;;;;;2.17;1.97;;;12.70;67.60;;;;;;5104996;28;20224;-45
2022/05/02 00:40:19;;;;;;;2.37;2.17;;;12.70;67.60;;;;;;5089314;28;20291;-45
2022/05/02 00:42:48;;;;;;;2.37;2.17;;;12.70;67.60;;;;;;5089640;28;20194;-40
2022/05/02 00:45:16;;;;;;;2.87;2.27;;;12.60;67.60;;;;;;5089003;28;20196;-42
2022/05/02 00:47:51;;;;;;;2.00;1.87;;;12.60;67.70;;;;;;5088656;28;20304;-44
2022/05/02 00:50:32;;;;;;;1.80;1.70;;;12.60;67.70;;;;;;5083108;28;20197;-45
2022/05/02 00:52:59;;;;;;;2.30;2.10;;;12.60;67.70;;;;;;5087831;28;20196;-39
2022/05/02 00:55:27;;;;;;;1.90;1.80;;;12.60;67.70;;;;;;5085155;28;20212;-42
2022/05/02 00:57:57;;;;;;;1.63;1.50;;;12.60;67.70;;;;;;5086695;28;20280;-43
2022/05/02 01:00:24;;;;;;;1.83;1.50;;;12.60;67.80;;;;;;5089025;28;20207;-39
2022/05/02 01:02:51;;;;;;;3.23;1.60;;;12.50;67.80;;;;;;5088006;28;20629;-42
2022/05/02 01:05:18;;;;;;;1.83;1.67;;;12.50;67.90;;;;;;5085000;28;20550;-43
2022/05/02 01:07:46;;;;;;;1.63;1.53;;;12.40;68.00;;;;;;5084936;28;20236;-39
2022/05/02 01:10:17;;;;;;;1.90;1.80;;;12.40;68.10;;;;;;5083584;28;20365;-41
2022/05/02 01:12:44;;;;;;;3.57;2.10;;;12.40;68.20;;;;;;5089313;28;20287;-42
2022/05/02 01:15:12;;;;;;;2.03;1.90;;;12.20;68.30;;;;;;5088624;28;20242;-41
2022/05/02 01:17:39;;;;;;;1.70;1.60;;;12.20;68.50;;;;;;5088959;28;20203;-41
2022/05/02 01:20:09;;;;;;;2.20;1.67;;;11.70;68.00;;;;;;5076796;28;20210;-43
2022/05/02 01:22:36;;;;;;;2.03;1.53;;;12.30;68.60;;;;;;5072091;28;20213;-44
2022/05/02 01:25:04;;;;;;;2.00;1.80;;;12.30;68.40;;;;;;5088425;28;20200;-46
2022/05/02 01:27:31;;;;;;;1.77;1.67;;;12.40;68.50;;;;;;5088961;28;20204;-39
2022/05/02 01:29:59;;;;;;;1.57;1.47;;;12.40;68.40;;;;;;5088354;28;20255;-38
2022/05/02 01:32:26;;;;;;;1.83;1.60;;;12.40;68.30;;;;;;5082100;28;20292;-41
2022/05/02 01:34:53;;;;;;;2.03;1.83;;;12.40;68.30;;;;;;5086865;28;20201;-42
2022/05/02 01:37:22;;;;;;;2.20;2.00;;;12.40;68.30;;;;;;5089208;28;20228;-38
2022/05/02 01:39:49;;;;;;;2.60;2.20;;;12.40;68.10;;;;;;5088011;28;20284;-38
2022/05/02 01:42:16;;;;;;;2.07;1.90;;;12.40;68.10;;;;;;5089179;28;20226;-38
2022/05/02 01:44:43;;;;;;;2.17;2.03;;;12.40;67.90;;;;;;5088567;28;20327;-38
2022/05/02 01:47:11;;;;;;;2.10;1.90;;;11.80;67.30;;;;;;5089072;28;20201;-38
2022/05/02 01:49:38;;;;;;;2.50;2.30;;;12.40;67.80;;;;;;5086832;28;20319;-39
2022/05/02 01:52:06;;;;;;;2.80;1.97;;;12.40;67.80;;;;;;5089287;28;20205;-37
2022/05/02 01:54:35;;;;;;;2.30;2.10;;;12.30;67.70;;;;;;5086711;28;20203;-38
2022/05/02 01:57:02;;;;;;;2.20;2.00;;;12.30;67.80;;;;;;5087698;28;20247;-38
2022/05/02 01:59:29;;;;;;;2.83;2.13;;;12.20;67.80;;;;;;5086831;28;20292;-38
2022/05/02 02:01:56;;;;;;;2.07;1.97;;;12.10;67.90;;;;;;5088812;28;20273;-38
2022/05/02 02:07:08;;;;;;;1.77;1.67;;;12.10;68.20;;;;;;5089376;28;20617;-39
2022/05/02 02:09:37;;;;;;;2.00;1.90;;;12.10;68.20;;;;;;5087971;28;20264;-42
2022/05/02 02:12:05;;;;;;;2.00;1.90;;;12.10;68.20;;;;;;5089529;28;20709;-38
2022/05/02 02:14:32;;;;;;;2.43;2.20;;;12.00;68.10;;;;;;5088714;28;20889;-39
2022/05/02 02:16:59;;;;;;;2.43;1.90;;;12.00;68.30;;;;;;5097691;28;20256;-39
2022/05/02 02:19:26;;;;;;;3.60;2.20;;;11.90;68.30;;;;;;5083712;28;20296;-38
2022/05/02 02:22:16;;;;;;;3.30;2.37;;;11.90;68.40;;;;;;5072556;28;20708;-39
2022/05/02 02:24:42;;;;;;;3.07;2.77;;;11.90;68.40;;;;;;5086868;28;20204;-41
2022/05/02 02:27:09;;;;;;;2.90;2.70;;;11.90;68.40;;;;;;5088084;28;20197;-39
2022/05/02 02:29:36;;;;;;;3.50;2.60;;;11.90;68.30;;;;;;5088689;28;20661;-40
2022/05/02 02:32:04;;;;;;;3.27;2.70;;;11.90;68.20;;;;;;5078732;28;20206;-38
2022/05/02 02:34:31;;;;;;;2.60;2.40;;;11.90;68.30;;;;;;5088621;28;20607;-41
2022/05/02 02:37:00;;;;;;;2.70;2.30;;;11.90;68.20;;;;;;5091985;28;20278;-41
2022/05/02 02:39:27;;;;;;;3.07;2.63;;;11.90;68.10;;;;;;5091277;28;20250;-39
2022/05/02 02:41:55;;;;;;;2.83;2.50;;;11.80;68.00;;;;;;5092681;28;20201;-38
2022/05/02 02:44:22;;;;;;;2.63;2.43;;;11.80;68.10;;;;;;5091528;28;20188;-38
2022/05/02 02:46:50;;;;;;;3.60;2.80;;;11.80;68.10;;;;;;5091144;28;20215;-39
2022/05/02 02:49:17;;;;;;;3.57;2.97;;;11.80;68.00;;;;;;5087961;28;20216;-39
2022/05/02 02:51:44;;;;;;;4.07;3.03;;;11.80;67.90;;;;;;5090415;28;20266;-39
2022/05/02 02:54:12;;;;;;;2.47;2.10;;;11.80;67.80;;;;;;5087939;28;20192;-39
2022/05/02 02:56:39;;;;;;;2.80;2.53;;;11.90;67.80;;;;;;5090426;28;20236;-40
2022/05/02 02:59:08;;;;;;;2.97;2.53;;;11.80;67.70;;;;;;5090807;28;20628;-39
2022/05/02 03:01:35;;;;;;;3.60;2.73;;;11.90;67.70;;;;;;5090418;28;20199;-42
2022/05/02 03:06:01;;;;;;;2.80;2.57;;;11.80;67.60;;;;;;5087450;28;20272;-40
2022/05/02 03:06:50;;;;;;;3.40;2.60;;;11.80;67.50;;;;;;5091113;28;20199;-41
2022/05/02 03:09:17;;;;;;;2.90;2.50;;;11.80;67.50;;;;;;5088815;28;20217;-39
2022/05/02 03:11:44;;;;;;;3.70;2.97;;;11.70;67.50;;;;;;5091481;28;20193;-46
2022/05/02 03:14:13;;;;;;;3.40;2.50;;;11.60;67.60;;;;;;5091221;28;20192;-47
2022/05/02 03:16:40;;;;;;;2.70;2.43;;;11.60;67.80;;;;;;5091518;28;20717;-40
2022/05/02 03:19:07;;;;;;;2.33;2.10;;;11.50;67.80;;;;;;5090038;28;20222;-41
2022/05/02 03:21:34;;;;;;;5.07;2.87;;;11.50;67.80;;;;;;5072574;28;20215;-40
2022/05/02 03:24:01;;;;;;;4.13;2.50;;;11.60;67.90;;;;;;5090461;28;20212;-43
2022/05/02 03:26:28;;;;;;;3.60;2.90;;;11.60;67.80;;;;;;5089777;28;20200;-43
2022/05/02 03:28:56;;;;;;;4.77;2.90;;;11.60;67.80;;;;;;5090141;28;20209;-44
2022/05/02 03:31:25;;;;;;;2.90;2.70;;;11.60;67.70;;;;;;5090749;28;20222;-42
2022/05/02 03:33:52;;;;;;;3.50;2.60;;;11.60;67.60;;;;;;5088876;28;20540;-39
2022/05/02 03:36:19;;;;;;;2.90;2.63;;;11.70;67.70;;;;;;5089842;28;20218;-45
2022/05/02 03:38:46;;;;;;;4.23;2.70;;;11.70;67.60;;;;;;5089911;28;20207;-43
2022/05/02 03:41:13;;;;;;;4.43;3.10;;;11.60;67.50;;;;;;5090603;28;20518;-41
2022/05/02 03:43:42;;;;;;;3.43;2.70;;;11.50;67.60;;;;;;5090598;28;20204;-39
2022/05/02 03:46:09;;;;;;;2.47;2.27;;;11.60;67.80;;;;;;5096998;28;20212;-41
2022/05/02 03:48:38;;;;;;;2.60;2.40;;;11.50;67.70;;;;;;5086770;28;20204;-42
2022/05/02 03:51:05;;;;;;;5.47;2.37;;;11.50;67.80;;;;;;5086793;28;20302;-39
2022/05/02 03:53:32;;;;;;;3.33;2.70;;;11.50;67.80;;;;;;5088307;28;20202;-39
2022/05/02 03:55:59;;;;;;;2.70;2.50;;;11.60;67.90;;;;;;5090551;28;20241;-45
2022/05/02 03:58:27;;;;;;;2.57;2.33;;;11.60;67.90;;;;;;5090157;28;20565;-47
2022/05/02 04:00:54;;;;;;;3.03;2.50;;;11.60;67.80;;;;;;5090197;28;20644;-44
2022/05/02 04:03:21;;;;;;;3.27;2.67;;;11.60;67.90;;;;;;5088937;28;20203;-39
2022/05/02 04:05:50;;;;;;;2.67;2.47;;;11.60;67.90;;;;;;5087008;28;20212;-41
2022/05/02 04:08:17;;;;;;;3.27;2.57;;;11.60;68.00;;;;;;5089863;28;20195;-44
2022/05/02 04:10:44;;;;;;;5.00;2.70;;;11.60;68.00;;;;;;5088993;28;20222;-42
2022/05/02 04:13:11;;;;;;;3.07;2.57;;;11.60;68.00;;;;;;5090209;28;20402;-39
2022/05/02 04:15:39;;;;;;;2.30;2.03;;;11.60;68.10;;;;;;5090112;28;20570;-39
2022/05/02 04:18:06;;;;;;;2.20;2.00;;;11.60;69.00;;;;;;5090208;28;20226;-38
2022/05/02 04:20:33;;;;;;;2.17;1.97;;;11.60;68.40;;;;;;5087169;28;20573;-40
2022/05/02 04:23:02;;;;;;;3.80;2.60;;;11.50;68.30;;;;;;5083881;28;20196;-42
2022/05/02 04:25:29;;;;;;;2.53;2.33;;;11.60;68.50;;;;;;5089758;28;20188;-40
2022/05/02 04:27:56;;;;;;;2.70;2.20;;;11.60;68.50;;;;;;5089849;28;20203;-38
2022/05/02 04:30:24;;;;;;;2.90;2.20;;;11.60;68.50;;;;;;5089620;28;20208;-44
2022/05/02 04:32:51;;;;;;;2.73;2.23;;;11.60;68.60;;;;;;5090260;28;20200;-41
2022/05/02 04:35:18;;;;;;;1.93;1.83;;;11.70;68.60;;;;;;5087467;28;20200;-43
2022/05/02 04:37:45;;;;;;;2.33;2.13;;;11.70;68.50;;;;;;5079492;28;20601;-38
2022/05/02 04:40:14;;;;;;;2.10;1.90;;;11.70;68.40;;;;;;5088956;28;20675;-38
2022/05/02 04:42:42;;;;;;;2.60;2.37;;;11.80;68.40;;;;;;5080082;28;20702;-41
2022/05/02 04:45:10;;;;;;;2.40;1.93;;;11.80;68.40;;;;;;5087570;28;20192;-39
2022/05/02 04:47:37;;;;;;;2.40;2.20;;;11.80;68.40;;;;;;5080318;28;20225;-42
2022/05/02 04:50:06;;;;;;;2.67;1.90;;;11.90;68.50;;;;;;5087017;28;20216;-41
2022/05/02 04:52:33;;;;;;;4.10;2.00;;;11.90;68.40;;;;;;5080844;28;20677;-41
2022/05/02 04:55:00;;;;;;;1.83;1.70;;;11.90;68.50;;;;;;5088685;28;20209;-38
2022/05/02 04:57:29;;;;;;;2.00;1.67;;;11.90;68.50;;;;;;5085199;28;20711;-38
2022/05/02 04:59:56;;;;;;;4.63;2.03;;;11.90;68.50;;;;;;5086918;28;20532;-39
2022/05/02 05:02:24;;;;;;;3.77;2.20;;;12.00;68.50;;;;;;5090121;28;20563;-39
2022/05/02 05:04:51;;;;;;;2.13;1.90;;;12.00;68.50;;;;;;5087096;28;20200;-37
2022/05/02 05:07:18;;;;;;;2.20;2.00;;;12.00;68.40;;;;;;5090466;28;20283;-38
2022/05/02 05:09:45;;;;;;;1.90;1.80;;;12.10;68.50;;;;;;5088605;28;20737;-39
2022/05/02 05:12:24;;;;;;;1.93;1.83;;;12.10;68.30;;;;;;5089568;28;20201;-38
2022/05/02 05:18:01;;;;;;;2.50;2.10;;;12.10;68.20;;;;;;5087650;28;20222;-39
2022/05/02 05:20:38;;;;;;;4.97;2.07;;;12.10;68.20;;;;;;5084862;28;20223;-39
2022/05/02 05:23:17;;;;;;;3.70;2.33;;;12.20;68.30;;;;;;5084208;28;20202;-39
2022/05/02 05:26:10;;;;;;;2.40;2.20;;;12.30;68.30;;;;;;5085834;28;20193;-39
2022/05/02 05:28:56;;;;;;;4.67;2.43;;;12.40;68.30;;;;;;5088837;28;20211;-40
2022/05/02 05:31:33;;;;;;;2.90;2.00;;;12.40;68.20;;;;;;5099364;28;20560;-39
2022/05/02 05:34:16;;;;;;;2.30;2.10;;;12.50;68.30;;;;;;5088367;28;20728;-40
2022/05/02 05:37:01;;;;;;;2.80;2.10;;;12.50;68.20;;;;;;5087711;28;20211;-38
2022/05/02 05:39:36;;;;;;;2.03;1.90;;;12.50;68.20;;;;;;5088185;28;20226;-38
2022/05/02 05:42:13;;;;;;;5.27;2.40;;;12.50;68.20;;;;;;5089400;28;20192;-37
2022/05/02 05:44:53;;;;;;;8.50;2.70;;;12.60;68.30;;;;;;5088691;28;20204;-39
2022/05/02 05:47:43;;;;;;;4.97;2.70;;;12.60;68.20;;;;;;5086585;28;20209;-38
2022/05/02 05:50:21;;;;;;;5.47;2.70;;;12.60;68.10;;;;;;5069567;28;20220;-38
2022/05/02 05:53:03;;;;;;;3.97;2.67;;;12.60;68.00;;;;;;5085357;28;20219;-39
2022/05/02 05:55:44;;;;;;;4.83;2.30;;;12.70;68.10;;;;;;5073653;28;20300;-38
2022/05/02 05:58:16;;;;;;;3.80;2.27;;;12.70;68.10;;;;;;5086640;28;20216;-46
2022/05/02 06:00:45;;;;;;;3.87;2.30;;;12.80;68.10;;;;;;5088069;28;20216;-41
2022/05/02 06:03:15;;;;;;;3.10;1.97;;;12.80;68.10;;;;;;5084882;28;20196;-43
2022/05/02 06:05:44;;;;;;;2.50;1.83;;;12.90;68.10;;;;;;5089031;28;20197;-45
2022/05/02 06:08:14;;;;;;;2.27;1.97;;;13.00;68.20;;;;;;5084676;28;20193;-45
2022/05/02 06:10:42;;;;;;;4.53;1.73;;;13.10;68.20;;;;;;5091801;28;20292;-41
2022/05/02 06:13:10;;;;;;;3.07;1.80;;;13.10;68.00;;;;;;5090626;28;20199;-44
2022/05/02 06:18:30;;;;;;;3.37;1.63;;;13.20;67.80;;;;;;5083142;28;20246;-39
2022/05/02 06:20:59;;;;;;;9.80;2.37;;;13.20;67.70;;;;;;5085699;28;20211;-40
2022/05/02 06:23:32;;;;;;;4.97;2.20;;;13.30;67.60;;;;;;5085377;28;20189;-39
2022/05/02 06:26:00;;;;;;;3.07;1.93;;;13.40;67.60;;;;;;5086917;28;20205;-40
2022/05/02 06:28:32;;;;;;;3.13;1.80;;;13.50;67.50;;;;;;5092242;28;20208;-38
2022/05/02 06:31:01;;;;;;;1.60;1.50;;;13.50;67.40;;;;;;5089263;28;20215;-37
2022/05/02 06:33:31;;;;;;;1.53;1.40;;;13.60;67.50;;;;;;5106513;28;20235;-38
2022/05/02 06:36:11;;;;;;;1.70;1.60;;;13.60;67.40;;;;;;5078082;28;20573;-38
2022/05/02 06:38:49;;;;;;;3.83;2.10;;;13.60;67.30;;;;;;5105680;28;20213;-39
2022/05/02 06:41:27;;;;;;;3.10;1.87;;;13.70;67.40;;;;;;5080301;28;20260;-39
2022/05/02 06:44:02;;;;;;;2.00;1.90;;;13.80;67.30;;;;;;5091143;28;20189;-39
2022/05/02 06:46:36;;;;;;;1.60;1.50;;;13.90;67.10;;;;;;5091235;28;20222;-39
2022/05/02 06:49:08;;;;;;;1.60;1.50;;;13.90;66.90;;;;;;5099458;28;20712;-39
2022/05/02 06:51:39;;;;;;;1.03;1.03;;;14.00;66.90;;;;;;5086667;28;20734;-38
2022/05/02 06:54:45;;;;;;;3.60;1.40;;;14.10;66.90;;;;;;5089062;28;20255;-39
2022/05/02 06:57:24;;;;;;;1.73;1.30;;;14.10;66.60;;;;;;5086861;28;20711;-39
2022/05/02 06:59:58;;;;;;;1.60;1.50;;;14.20;66.50;;;;;;5090022;28;20577;-38
2022/05/02 07:02:42;;;;;;;5.17;2.80;;;14.20;66.30;;;;;;5085374;28;20205;-39
2022/05/02 07:05:19;;;;;;;2.63;1.97;;;14.30;65.90;;;;;;5083661;28;20217;-39
2022/05/02 07:08:02;;;;;;;1.87;1.70;;;14.40;65.70;;;;;;5087686;28;20199;-38
2022/05/02 07:10:33;;;;;;;2.80;1.50;;;14.50;66.50;;;;;;5090030;28;20746;-40
2022/05/02 07:13:13;;;;;;;2.43;1.90;;;14.60;65.60;;;;;;5090416;28;20326;-39
2022/05/02 07:15:45;;;;;;;1.50;1.40;;;14.70;65.30;;;;;;5089642;28;20661;-39
2022/05/02 07:18:30;;;;;;;2.37;1.27;;;14.80;65.20;;;;;;5085065;28;20670;-38
2022/05/02 07:21:18;;;;;;;2.00;1.80;;;14.90;65.00;;;;;;5083337;28;20666;-38
2022/05/02 07:24:03;;;;;;;4.23;2.80;;;14.90;64.60;;;;;;5090395;28;20198;-39
2022/05/02 07:26:34;;;;;;;2.43;1.73;;;15.00;63.10;;;;;;5069994;28;20198;-38
2022/05/02 07:29:04;;;;;;;3.77;2.50;;;15.00;63.30;;;;;;5071279;28;20199;-39
2022/05/02 07:31:33;;;;;;;3.30;2.33;;;15.10;63.20;;;;;;5086301;28;20701;-39
2022/05/02 07:34:03;;;;;;;2.17;1.73;;;15.20;63.10;;;;;;5088255;28;20206;-41
2022/05/02 07:36:35;;;;;;;2.97;1.87;;;15.20;63.00;;;;;;5087986;28;20200;-40
2022/05/02 07:39:05;;;;;;;3.17;2.40;;;15.30;63.00;;;;;;5085151;28;20199;-39
2022/05/02 07:41:35;;;;;;;3.60;2.53;;;15.30;62.40;;;;;;5093498;28;20226;-40
2022/05/02 07:44:04;;;;;;;2.53;2.20;;;15.30;61.10;;;;;;5084018;28;20463;-41
2022/05/02 07:46:36;;;;;;;4.97;2.23;;;15.40;60.30;;;;;;5086954;28;20282;-37
2022/05/02 07:49:05;;;;;;;4.27;2.70;;;15.40;60.30;;;;;;5085715;28;20207;-37
2022/05/02 07:51:39;;;;;;;2.80;2.23;;;15.50;59.80;;;;;;5080397;28;20243;-38
2022/05/02 07:54:14;;;;;;;2.00;1.87;;;15.50;59.80;;;;;;5090157;28;20221;-38
2022/05/02 07:56:43;;;;;;;3.73;1.70;;;15.60;60.10;;;;;;5085118;28;20706;-39
2022/05/02 07:59:11;;;;;;;1.40;1.30;;;15.70;60.30;;;;;;5089672;28;20289;-39
2022/05/02 08:01:40;;;;;;;1.17;1.17;;;15.70;60.20;;;;;;5086597;28;20192;-39
2022/05/02 08:04:07;;;;;;;1.00;1.00;;;15.80;60.00;;;;;;5089531;28;20278;-40
2022/05/02 08:06:53;;;;;;;1.33;1.17;;;15.90;59.90;;;;;;5083676;28;20201;-39
2022/05/02 08:09:52;;;;;;;1.40;1.30;;;16.00;59.90;;;;;;5082462;28;20250;-40
2022/05/02 08:12:27;;;;;;;1.20;1.20;;;16.10;60.00;;;;;;5086339;28;20236;-38
2022/05/02 08:15:02;;;;;;;2.67;1.60;;;16.20;59.90;;;;;;5089661;28;20286;-38
2022/05/02 08:17:47;;;;;;;2.80;2.03;;;16.20;59.70;;;;;;5083987;28;20208;-45
2022/05/02 08:20:23;;;;;;;3.00;2.20;;;16.30;59.60;;;;;;5086805;28;20196;-37
2022/05/02 08:29:13;;;;;;;2.63;1.83;;;16.60;58.30;;;;;;5082531;28;20192;-38
2022/05/02 08:31:51;;;;;;;1.20;1.10;;;16.70;57.60;;;;;;5086971;28;20196;-38
2022/05/02 08:34:32;;;;;;;2.43;1.30;;;16.80;57.80;;;;;;5085114;28;20207;-39
2022/05/02 08:37:14;;;;;;;2.50;1.90;;;16.80;57.50;;;;;;5088462;28;20242;-38
2022/05/02 08:40:01;;;;;;;3.40;2.10;;;16.90;56.60;;;;;;5077864;28;20196;-38
2022/05/02 08:43:03;;;;;;;2.13;1.77;;;16.90;56.00;;;;;;5088544;28;20192;-38
2022/05/02 08:46:07;;;;;;;1.27;1.10;;;17.00;55.50;;;;;;5085186;28;20198;-38
2022/05/02 08:52:24;;;;;;;2.40;2.20;;;17.20;55.80;;;;;;5078816;28;20260;-38
2022/05/02 08:55:21;;;;;;;1.33;1.23;;;17.20;55.30;;;;;;5080519;28;20257;-41
2022/05/02 08:58:25;;;;;;;1.37;1.27;;;17.20;55.50;;;;;;5095388;28;20233;-42
2022/05/02 09:01:09;;;;;;;1.40;1.23;;;17.30;55.80;;;;;;5088106;28;20675;-39
2022/05/02 09:04:24;;;;;;;1.03;1.03;;;17.50;53.70;;;;;;5093401;28;20337;-41
2022/05/02 09:07:20;;;;;;;1.20;1.10;;;17.60;53.30;;;;;;4986895;28;20208;-38
2022/05/02 09:10:05;;;;;;;1.23;1.13;;;17.80;53.40;;;;;;5084398;28;20235;-39
2022/05/02 09:13:05;;;;;;;4.47;1.87;;;17.80;53.30;;;;;;5088863;28;20196;-38
2022/05/02 09:16:21;;;;;;;1.83;1.70;;;17.80;52.70;;;;;;5086584;28;20204;-39
2022/05/02 09:19:35;;;;;;;1.97;1.77;;;17.70;53.00;;;;;;5088379;28;20203;-39
2022/05/02 09:22:47;;;;;;;1.43;1.23;;;17.60;53.20;;;;;;5082268;28;20202;-38
2022/05/02 09:25:32;;;;;;;1.70;1.60;;;17.60;53.50;;;;;;5079314;28;20211;-39
2022/05/02 09:28:12;;;;;;;2.43;1.87;;;17.70;53.50;;;;;;5087382;28;20362;-38
2022/05/02 09:31:11;;;;;;;1.30;1.20;;;17.90;52.90;;;;;;5085325;28;20192;-40
2022/05/02 09:33:45;;;;;;;1.90;1.20;;;18.00;53.20;;;;;;5086065;28;20565;-38
2022/05/02 09:36:30;;;;;;;0.90;0.90;;;18.20;53.30;;;;;;5086773;28;20192;-38
2022/05/02 09:39:05;;;;;;;2.20;1.60;;;18.30;53.10;;;;;;5090539;28;20223;-39
2022/05/02 09:41:56;;;;;;;1.77;1.30;;;18.40;52.30;;;;;;5093291;28;20187;-40
2022/05/02 09:50:47;;;;;;;1.17;1.13;;;18.30;51.70;;;;;;5088656;28;20197;-39
2022/05/02 09:53:29;;;;;;;1.90;1.30;;;18.40;51.60;;;;;;5091250;28;20224;-40
2022/05/02 09:58:56;;;;;;;2.60;1.10;;;18.60;50.70;;;;;;5092200;28;20226;-39
2022/05/02 10:01:29;;;;;;;1.30;1.20;;;18.60;50.70;;;;;;5088434;28;20636;-39
2022/05/02 10:04:18;;;;;;;2.07;1.50;;;18.60;50.50;;;;;;5092332;28;20216;-38
2022/05/02 10:06:50;;;;;;;2.43;1.30;;;18.50;49.00;;;;;;5091533;28;20232;-39
2022/05/02 10:10:04;;;;;;;2.53;1.20;;;18.40;49.30;;;;;;5091951;28;20556;-39
2022/05/02 10:12:41;;;;;;;4.32;1.30;;;18.40;49.50;;;;;;5093082;28;20298;-38
2022/05/02 10:15:29;;;;;;;11.13;1.40;;;18.50;49.50;;;;;;5092087;28;20217;-41
2022/05/02 10:18:22;;;;;;;1.80;1.20;;;18.50;49.80;;;;;;5089672;28;20297;-40
2022/05/02 10:21:03;;;;;;;2.33;1.50;;;18.60;48.90;;;;;;5088127;28;20233;-39
2022/05/02 10:24:00;;;;;;;1.35;1.10;;;18.70;48.70;;;;;;5092730;28;20652;-39
2022/05/02 10:26:32;;;;;;;1.07;1.07;;;18.70;48.70;;;;;;5081621;28;20198;-38
2022/05/02 10:29:43;;;;;;;1.27;1.20;;;18.80;48.20;;;;;;5091163;28;20201;-39
2022/05/02 10:32:24;;;;;;;1.37;1.27;;;18.90;47.80;;;;;;5053635;28;20234;-40
2022/05/02 10:34:55;;;;;;;1.10;1.10;;;18.90;48.00;;;;;;5080802;28;20198;-39
2022/05/02 10:37:40;;;;;;;0.90;0.90;;;18.90;47.70;;;;;;5091154;28;20287;-40
2022/05/02 10:40:10;;;;;;;1.40;1.30;;;19.00;48.20;;;;;;5090264;28;20231;-41
2022/05/02 10:42:42;;;;;;;1.35;1.25;;;19.10;47.50;;;;;;5092336;28;20274;-41
2022/05/02 10:45:11;;;;;;;1.70;1.20;;;19.20;47.20;;;;;;5091833;28;20205;-46
2022/05/02 10:47:44;;;;;;;0.90;0.90;;;19.20;46.90;;;;;;5106516;28;20275;-41
2022/05/02 10:50:19;;;;;;;1.10;1.00;;;19.20;46.80;;;;;;5087642;28;20206;-44
2022/05/02 10:53:18;;;;;;;1.73;1.35;;;19.30;46.80;;;;;;5084197;28;20212;-40
2022/05/02 10:56:08;;;;;;;1.13;1.10;;;19.40;46.60;;;;;;5091248;28;20196;-40
2022/05/02 10:58:36;;;;;;;1.20;1.10;;;19.40;46.40;;;;;;5091641;28;20208;-40
2022/05/02 11:01:19;;;;;;;1.40;1.08;;;19.60;45.50;;;;;;5091900;28;20226;-38
2022/05/02 11:04:00;;;;;;;1.40;1.30;;;19.60;45.00;;;;;;5087148;28;20281;-38
2022/05/02 11:06:51;;;;;;;0.95;0.95;;;19.70;45.20;;;;;;5088209;28;20210;-38
2022/05/02 11:09:25;;;;;;;1.02;1.02;;;19.80;45.60;;;;;;5089089;28;20196;-41
2022/05/02 11:11:53;;;;;;;0.80;0.80;;;19.80;45.30;;;;;;5091890;28;20200;-39
2022/05/02 11:14:33;;;;;;;1.20;1.20;;;19.90;45.60;;;;;;5091445;28;21293;-39
2022/05/02 11:17:15;;;;;;;2.28;1.55;;;20.10;45.30;;;;;;5091904;28;20664;-38
2022/05/02 11:22:43;;;;;;;1.90;1.52;;;20.10;44.80;;;;;;5089901;28;20199;-46
2022/05/02 11:25:18;;;;;;;1.25;1.25;;;20.20;44.50;;;;;;5088965;28;20197;-45
2022/05/02 11:27:57;;;;;;;1.40;1.30;;;20.10;44.20;;;;;;5079388;28;20202;-39
2022/05/02 11:30:28;;;;;;;1.42;1.33;;;20.00;44.00;;;;;;5086928;28;20184;-39
2022/05/02 11:33:10;;;;;;;2.45;1.48;;;19.90;44.30;;;;;;5087304;28;20248;-38
2022/05/02 11:35:38;;;;;;;1.67;1.10;;;19.80;44.70;;;;;;5087233;28;20184;-39
2022/05/02 11:38:28;;;;;;;1.00;1.00;;;19.70;44.60;;;;;;5089739;28;20219;-39
2022/05/02 11:40:59;;;;;;;0.80;0.80;;;19.70;44.80;;;;;;5089884;28;20203;-39
2022/05/02 11:43:32;;;;;;;1.15;1.15;;;19.70;45.10;;;;;;5089107;28;20201;-39
2022/05/02 11:46:11;;;;;;;1.20;1.20;;;19.70;44.90;;;;;;5088383;28;20236;-39
2022/05/02 11:49:13;;;;;;;0.90;0.90;;;19.80;45.20;;;;;;5089125;28;20208;-39
2022/05/02 11:51:46;;;;;;;1.35;1.25;;;19.80;45.30;;;;;;5090800;28;20199;-39
2022/05/02 11:54:36;;;;;;;1.02;1.02;;;19.90;45.10;;;;;;5089072;28;20207;-39
2022/05/02 11:57:14;;;;;;;2.10;1.35;;;19.90;45.20;;;;;;5077581;28;20615;-41
2022/05/02 11:59:52;;;;;;;1.25;1.10;;;19.90;45.00;;;;;;5082346;28;20215;-38
2022/05/02 12:02:32;;;;;;;0.80;0.80;;;19.80;44.50;;;;;;5091174;28;20224;-39
2022/05/02 12:05:05;;;;;;;1.42;1.33;;;19.80;44.60;;;;;;5086600;28;20216;-38
2022/05/02 12:07:34;;;;;;;1.05;1.05;;;19.90;44.40;;;;;;5086601;28;20272;-42
2022/05/02 12:10:07;;;;;;;1.40;1.30;;;19.90;43.50;;;;;;5087367;28;20242;-41
2022/05/02 12:12:34;;;;;;;2.83;1.63;;;19.90;43.50;;;;;;5075786;28;20204;-41
2022/05/02 12:15:03;;;;;;;1.20;1.10;;;19.90;43.00;;;;;;5086656;28;20560;-43
2022/05/02 12:17:30;;;;;;;3.17;1.15;;;19.90;43.10;;;;;;5088507;28;20197;-40
2022/05/02 12:19:57;;;;;;;3.90;1.30;;;20.00;42.60;;;;;;5083841;28;20592;-43
2022/05/02 12:22:27;;;;;;;1.25;1.17;;;20.00;42.30;;;;;;5084518;28;20212;-44
2022/05/02 12:25:04;;;;;;;2.42;1.10;;;20.00;42.50;;;;;;5086745;28;20283;-40
2022/05/02 12:27:35;;;;;;;1.13;1.13;;;20.10;42.30;;;;;;5094056;28;20196;-44
2022/05/02 12:30:02;;;;;;;1.10;0.90;;;20.20;42.20;;;;;;5085299;28;20196;-40
2022/05/02 12:32:33;;;;;;;1.45;1.10;;;20.20;42.70;;;;;;5084774;28;20258;-39
2022/05/02 12:35:04;;;;;;;1.63;1.23;;;20.30;42.50;;;;;;5079880;28;20212;-45
2022/05/02 12:37:32;;;;;;;1.80;1.20;;;20.40;42.10;;;;;;5089543;28;20686;-39
2022/05/02 12:40:05;;;;;;;1.02;1.02;;;20.40;41.80;;;;;;5089255;28;20211;-40
2022/05/02 12:42:41;;;;;;;1.30;1.15;;;20.30;41.10;;;;;;5086043;28;20188;-39
2022/05/02 12:45:11;;;;;;;1.27;1.20;;;20.30;41.60;;;;;;5088655;28;20211;-41
2022/05/02 12:47:43;;;;;;;1.17;1.13;;;20.40;41.60;;;;;;5088995;28;20193;-39
2022/05/02 12:50:16;;;;;;;1.02;1.02;;;20.40;41.40;;;;;;5087484;28;20203;-40
2022/05/02 12:52:47;;;;;;;0.90;0.90;;;20.40;41.60;;;;;;5080022;28;20201;-41
2022/05/02 12:55:16;;;;;;;1.70;1.42;;;20.50;41.70;;;;;;5083691;28;20206;-43
2022/05/02 13:00:39;;;;;;;1.50;1.33;;;20.60;41.20;;;;;;5084945;28;20200;-39
2022/05/02 13:03:18;;;;;;;1.38;1.27;;;20.60;40.90;;;;;;5084269;28;20263;-39
2022/05/02 13:05:57;;;;;;;1.52;1.00;;;20.50;41.10;;;;;;5085916;28;20200;-43
2022/05/02 13:08:35;;;;;;;0.82;0.70;;;20.40;41.30;;;;;;5087297;28;20277;-47
2022/05/02 13:11:08;;;;;;;1.17;0.70;;;20.30;41.40;;;;;;5087970;28;20216;-41
2022/05/02 13:13:45;;;;;;;1.55;0.80;;;20.30;41.60;;;;;;5088913;28;20224;-42
2022/05/02 13:16:18;;;;;;;1.27;1.17;;;20.30;41.30;;;;;;5083345;28;20180;-39
2022/05/02 13:18:49;;;;;;;1.33;1.17;;;20.30;41.30;;;;;;5089222;28;20578;-39
2022/05/02 13:21:18;;;;;;;1.20;1.10;;;20.30;41.40;;;;;;5080366;28;20201;-45
2022/05/02 13:23:47;;;;;;;1.25;1.15;;;20.30;41.30;;;;;;5071233;28;20616;-39
2022/05/02 13:26:46;;;;;;;3.53;0.95;;;20.40;41.40;;;;;;5101413;28;20211;-38
2022/05/02 13:29:28;;;;;;;4.63;1.42;;;20.40;41.00;;;;;;5085591;28;20208;-39
2022/05/02 13:32:00;;;;;;;1.45;1.10;;;20.50;40.90;;;;;;5089191;28;20216;-45
2022/05/02 13:34:32;;;;;;;2.30;0.90;;;20.50;41.10;;;;;;5086133;28;20696;-41
2022/05/02 13:37:04;;;;;;;1.00;0.98;;;20.50;41.10;;;;;;5088523;28;20594;-42
2022/05/02 13:39:47;;;;;;;0.75;0.75;;;20.50;41.10;;;;;;5084873;28;20272;-39
2022/05/02 13:42:21;;;;;;;0.95;0.80;;;20.60;41.10;;;;;;5084826;28;20208;-42
2022/05/02 13:44:57;;;;;;;0.82;0.82;;;20.70;41.20;;;;;;5077487;28;20196;-42
2022/05/02 13:47:31;;;;;;;1.40;1.30;;;20.70;40.70;;;;;;5080542;28;20239;-40
2022/05/02 13:50:05;;;;;;;1.70;1.00;;;20.70;40.30;;;;;;5083717;28;20196;-39
2022/05/02 13:52:52;;;;;;;2.53;1.10;;;20.60;40.30;;;;;;5082481;28;20283;-39
2022/05/02 13:55:26;;;;;;;1.75;0.80;;;20.60;40.20;;;;;;5077099;28;20506;-43
2022/05/02 13:58:00;;;;;;;1.48;1.08;;;20.50;40.10;;;;;;5089309;28;20232;-42